Погода Переростна 2 недели

Гомельская область, Белоруссия

24 июля-05 августа
  • 24июля
    Сегодня
    +14°
    +26°
    Ясно и безоблачно
    ВремяПогодаТемператураВлажностьДавлениеВетер, м/сВероятность осадков
    00:00Ясно и безоблачно+19°C86 %749 мм2.2 м/с2 %
    03:00Ясно и безоблачно+17°C92 %749 мм2.4 м/с2 %
    06:00Ясно и безоблачно+16°C94 %749 мм2.1 м/с2 %
    09:00Ясно и безоблачно+20°C70 %750 мм3.6 м/с2 %
    12:00Ясно и безоблачно+25°C48 %749 мм4.3 м/с6 %
    15:00Ясно и безоблачно+26°C40 %749 мм4.4 м/с3 %
    18:00Ясно и безоблачно+25°C39 %748 мм5.2 м/с2 %
    21:00Ясно и безоблачно+21°C47 %748 мм2.9 м/с2 %
  • 25июля
    Четверг
    +17°
    +27°
    Облачно с прояснениями
    ВремяПогодаТемператураВлажностьДавлениеВетер, м/сВероятность осадков
    00:00Ясно и безоблачно+18°C62 %748 мм2.2 м/с2 %
    03:00Ясно и безоблачно+15°C73 %748 мм2.3 м/с2 %
    06:00Ясно и безоблачно+15°C78 %747 мм1.8 м/с2 %
    09:00Ясно и безоблачно+21°C55 %748 мм2.6 м/с2 %
    12:00Облачно с прояснениями+25°C38 %747 мм3.7 м/с2 %
    15:00Облачно с прояснениями+27°C36 %747 мм3.5 м/с2 %
    18:00Облачно с прояснениями+26°C38 %746 мм4.2 м/с2 %
    21:00Облачно с прояснениями+22°C49 %747 мм2.7 м/с2 %
  • 26июля
    Пятница
    +17°
    +28°
    Практически безоблачно
    ВремяПогодаТемператураВлажностьДавлениеВетер, м/сВероятность осадков
    00:00Облачно с прояснениями+19°C62 %747 мм2.0 м/с2 %
    03:00Ясно и безоблачно+17°C76 %747 мм2.3 м/с2 %
    06:00Небольшая облачность+17°C79 %747 мм1.8 м/с2 %
    09:00Ясно и безоблачно+22°C60 %748 мм2.8 м/с2 %
    12:00Практически безоблачно+27°C38 %748 мм3.2 м/с4 %
    15:00Практически безоблачно+28°C38 %749 мм3.2 м/с8 %
    18:00Практически безоблачно+27°C40 %749 мм4.4 м/с26 %
    21:00Облачно с прояснениями+23°C62 %750 мм2.5 м/с13 %
  • 27июля
    Суббота
    +16°
    +26°
    Ясно и безоблачно
    ВремяПогодаТемператураВлажностьДавлениеВетер, м/сВероятность осадков
    00:00Ясно и безоблачно+20°C76 %751 мм1.3 м/с2 %
    03:00Ясно и безоблачно+18°C89 %751 мм1.7 м/с6 %
    06:00Ясно и безоблачно+18°C93 %752 мм1.4 м/с9 %
    09:00Ясно и безоблачно+23°C67 %753 мм2.2 м/с7 %
    12:00Практически безоблачно+28°C47 %753 мм2.6 м/с11 %
    15:00Ясно и безоблачно+30°C45 %753 мм2.9 м/с8 %
    18:00Ясно и безоблачно+28°C44 %753 мм4.3 м/с21 %
    21:00Облачно с прояснениями+25°C61 %753 мм2.5 м/с5 %
Мы используем cookies
Соглашаюсь